sensor_id;sensor_type;location;lat;lon;timestamp;pressure;altitude;pressure_sealevel;temperature;humidity
21182;BME280;10749;46.296;7.524;2022-10-31T00:02:02;95436.22;;;16.81;46.93
21182;BME280;10749;46.296;7.524;2022-10-31T00:04:27;95442.81;;;16.85;46.87
21182;BME280;10749;46.296;7.524;2022-10-31T00:06:52;95447.72;;;16.94;47.02
21182;BME280;10749;46.296;7.524;2022-10-31T00:09:17;95442.38;;;16.94;46.85
21182;BME280;10749;46.296;7.524;2022-10-31T00:11:43;95441.53;;;16.74;46.92
21182;BME280;10749;46.296;7.524;2022-10-31T00:14:08;95433.09;;;16.71;47.03
21182;BME280;10749;46.296;7.524;2022-10-31T00:16:33;95430.84;;;16.74;46.96
21182;BME280;10749;46.296;7.524;2022-10-31T00:19:00;95433.75;;;16.73;47.14
21182;BME280;10749;46.296;7.524;2022-10-31T00:21:27;95437.44;;;16.72;47.21
21182;BME280;10749;46.296;7.524;2022-10-31T00:23:52;95429.63;;;16.77;47.18
21182;BME280;10749;46.296;7.524;2022-10-31T00:26:18;95434.56;;;16.80;47.36
21182;BME280;10749;46.296;7.524;2022-10-31T00:28:44;95439.28;;;16.71;46.84
21182;BME280;10749;46.296;7.524;2022-10-31T00:31:10;95442.56;;;16.67;47.17
21182;BME280;10749;46.296;7.524;2022-10-31T00:33:37;95443.56;;;16.66;47.36
21182;BME280;10749;46.296;7.524;2022-10-31T00:36:04;95434.13;;;16.63;47.16
21182;BME280;10749;46.296;7.524;2022-10-31T00:38:30;95434.53;;;16.67;47.18
21182;BME280;10749;46.296;7.524;2022-10-31T00:40:55;95441.75;;;16.73;47.05
21182;BME280;10749;46.296;7.524;2022-10-31T00:43:21;95432.91;;;16.72;47.29
21182;BME280;10749;46.296;7.524;2022-10-31T00:45:46;95434.53;;;16.73;47.03
21182;BME280;10749;46.296;7.524;2022-10-31T00:48:11;95435.38;;;16.74;46.96
21182;BME280;10749;46.296;7.524;2022-10-31T00:50:38;95424.59;;;16.47;47.00
21182;BME280;10749;46.296;7.524;2022-10-31T00:53:03;95431.56;;;16.35;47.15
21182;BME280;10749;46.296;7.524;2022-10-31T00:55:29;95432.56;;;16.34;47.06
21182;BME280;10749;46.296;7.524;2022-10-31T00:57:54;95427.84;;;16.36;47.31
21182;BME280;10749;46.296;7.524;2022-10-31T01:00:20;95427.25;;;16.41;47.72
21182;BME280;10749;46.296;7.524;2022-10-31T01:02:45;95431.19;;;16.51;47.35
21182;BME280;10749;46.296;7.524;2022-10-31T01:05:11;95431.88;;;16.60;47.55
21182;BME280;10749;46.296;7.524;2022-10-31T01:07:37;95431.25;;;16.65;47.12
21182;BME280;10749;46.296;7.524;2022-10-31T01:10:03;95422.81;;;16.68;47.41
21182;BME280;10749;46.296;7.524;2022-10-31T01:12:29;95430.44;;;16.71;47.15
21182;BME280;10749;46.296;7.524;2022-10-31T01:14:54;95424.91;;;16.72;47.12
21182;BME280;10749;46.296;7.524;2022-10-31T01:17:19;95421.38;;;16.65;47.42
21182;BME280;10749;46.296;7.524;2022-10-31T01:19:45;95415.22;;;16.65;47.18
21182;BME280;10749;46.296;7.524;2022-10-31T01:22:10;95423.84;;;16.67;47.32
21182;BME280;10749;46.296;7.524;2022-10-31T01:24:36;95418.72;;;16.72;47.15
21182;BME280;10749;46.296;7.524;2022-10-31T01:27:01;95419.75;;;16.77;47.17
21182;BME280;10749;46.296;7.524;2022-10-31T01:29:27;95413.34;;;16.58;46.92
21182;BME280;10749;46.296;7.524;2022-10-31T01:31:52;95418.03;;;16.56;47.52
21182;BME280;10749;46.296;7.524;2022-10-31T01:34:17;95417.59;;;16.46;47.18
21182;BME280;10749;46.296;7.524;2022-10-31T01:36:44;95409.41;;;16.48;47.52
21182;BME280;10749;46.296;7.524;2022-10-31T01:39:14;95418.84;;;16.50;47.56
21182;BME280;10749;46.296;7.524;2022-10-31T01:41:42;95412.25;;;16.46;47.97
21182;BME280;10749;46.296;7.524;2022-10-31T01:46:55;95418.41;;;16.40;47.89
21182;BME280;10749;46.296;7.524;2022-10-31T01:49:33;95411.44;;;16.39;47.93
21182;BME280;10749;46.296;7.524;2022-10-31T01:52:04;95407.94;;;16.39;48.09
21182;BME280;10749;46.296;7.524;2022-10-31T01:54:37;95411.81;;;16.36;47.82
21182;BME280;10749;46.296;7.524;2022-10-31T01:57:06;95407.09;;;16.38;47.90
21182;BME280;10749;46.296;7.524;2022-10-31T01:59:36;95399.31;;;16.43;48.13
21182;BME280;10749;46.296;7.524;2022-10-31T02:02:05;95398.28;;;16.44;48.22
21182;BME280;10749;46.296;7.524;2022-10-31T02:04:30;95397.88;;;16.47;47.82
21182;BME280;10749;46.296;7.524;2022-10-31T02:06:57;95399.13;;;16.51;47.76
21182;BME280;10749;46.296;7.524;2022-10-31T02:09:25;95398.53;;;16.56;47.82
21182;BME280;10749;46.296;7.524;2022-10-31T02:11:56;95400.38;;;16.55;47.72
21182;BME280;10749;46.296;7.524;2022-10-31T02:14:23;95396.19;;;16.33;47.64
21182;BME280;10749;46.296;7.524;2022-10-31T02:16:50;95392.41;;;16.01;47.57
21182;BME280;10749;46.296;7.524;2022-10-31T02:19:24;95397.75;;;16.08;47.84
21182;BME280;10749;46.296;7.524;2022-10-31T02:30:18;95384.66;;;16.20;48.25
21182;BME280;10749;46.296;7.524;2022-10-31T02:33:39;95380.13;;;16.20;48.39
21182;BME280;10749;46.296;7.524;2022-10-31T02:39:18;95380.34;;;16.25;48.21
21182;BME280;10749;46.296;7.524;2022-10-31T02:42:07;95378.94;;;16.29;48.08
21182;BME280;10749;46.296;7.524;2022-10-31T02:47:08;95370.72;;;16.37;48.22
21182;BME280;10749;46.296;7.524;2022-10-31T02:52:37;95371.38;;;16.39;47.94
21182;BME280;10749;46.296;7.524;2022-10-31T02:57:48;95368.69;;;16.39;47.69
21182;BME280;10749;46.296;7.524;2022-10-31T03:00:14;95362.53;;;16.45;47.91
21182;BME280;10749;46.296;7.524;2022-10-31T03:03:11;95361.91;;;16.43;47.55
21182;BME280;10749;46.296;7.524;2022-10-31T03:06:07;95362.31;;;16.40;47.69
21182;BME280;10749;46.296;7.524;2022-10-31T03:11:33;95353.06;;;16.49;47.47
21182;BME280;10749;46.296;7.524;2022-10-31T03:14:11;95346.94;;;16.55;47.76
21182;BME280;10749;46.296;7.524;2022-10-31T03:16:48;95353.53;;;16.59;47.65
21182;BME280;10749;46.296;7.524;2022-10-31T03:19:30;95352.28;;;16.55;47.40
21182;BME280;10749;46.296;7.524;2022-10-31T03:22:01;95349.38;;;16.50;47.69
21182;BME280;10749;46.296;7.524;2022-10-31T03:24:34;95352.25;;;16.42;47.39
21182;BME280;10749;46.296;7.524;2022-10-31T03:27:01;95350.59;;;16.41;47.44
21182;BME280;10749;46.296;7.524;2022-10-31T03:29:30;95348.97;;;16.47;47.46
21182;BME280;10749;46.296;7.524;2022-10-31T03:32:01;95353.06;;;16.49;47.23
21182;BME280;10749;46.296;7.524;2022-10-31T03:34:30;95351.41;;;16.48;47.53
21182;BME280;10749;46.296;7.524;2022-10-31T03:36:57;95344.84;;;16.44;47.13
21182;BME280;10749;46.296;7.524;2022-10-31T03:39:27;95348.94;;;16.40;47.29
21182;BME280;10749;46.296;7.524;2022-10-31T03:41:57;95350.38;;;16.36;47.43
21182;BME280;10749;46.296;7.524;2022-10-31T03:44:26;95354.69;;;16.37;47.65
21182;BME280;10749;46.296;7.524;2022-10-31T03:46:54;95344.22;;;16.42;47.47
21182;BME280;10749;46.296;7.524;2022-10-31T03:49:19;95346.50;;;16.45;47.67
21182;BME280;10749;46.296;7.524;2022-10-31T03:52:02;95343.63;;;16.47;47.53
21182;BME280;10749;46.296;7.524;2022-10-31T03:54:42;95351.44;;;16.42;47.61
21182;BME280;10749;46.296;7.524;2022-10-31T03:57:24;95343.41;;;16.42;47.34
21182;BME280;10749;46.296;7.524;2022-10-31T04:00:12;95336.22;;;16.42;47.63
21182;BME280;10749;46.296;7.524;2022-10-31T04:02:42;95338.91;;;16.42;47.37
21182;BME280;10749;46.296;7.524;2022-10-31T04:05:11;95348.13;;;16.33;47.46
21182;BME280;10749;46.296;7.524;2022-10-31T04:07:41;95341.94;;;16.33;47.38
21182;BME280;10749;46.296;7.524;2022-10-31T04:10:11;95334.34;;;16.36;47.73
21182;BME280;10749;46.296;7.524;2022-10-31T04:12:39;95330.47;;;16.39;47.50
21182;BME280;10749;46.296;7.524;2022-10-31T04:15:06;95327.19;;;16.43;47.44
21182;BME280;10749;46.296;7.524;2022-10-31T04:17:35;95327.19;;;16.43;47.29
21182;BME280;10749;46.296;7.524;2022-10-31T04:20:03;95324.28;;;16.45;47.48
21182;BME280;10749;46.296;7.524;2022-10-31T04:22:28;95332.34;;;16.51;47.05
21182;BME280;10749;46.296;7.524;2022-10-31T04:24:54;95321.66;;;16.51;47.44
21182;BME280;10749;46.296;7.524;2022-10-31T04:27:19;95321.00;;;16.49;47.07
21182;BME280;10749;46.296;7.524;2022-10-31T04:29:44;95334.59;;;16.48;47.02
21182;BME280;10749;46.296;7.524;2022-10-31T04:32:10;95327.56;;;16.40;46.96
21182;BME280;10749;46.296;7.524;2022-10-31T04:34:35;95325.72;;;16.34;47.24
21182;BME280;10749;46.296;7.524;2022-10-31T04:37:00;95314.81;;;16.36;47.26
21182;BME280;10749;46.296;7.524;2022-10-31T04:39:25;95315.25;;;16.39;47.33
21182;BME280;10749;46.296;7.524;2022-10-31T04:41:51;95323.66;;;16.36;47.46
21182;BME280;10749;46.296;7.524;2022-10-31T04:44:16;95316.06;;;16.33;47.46
21182;BME280;10749;46.296;7.524;2022-10-31T04:46:41;95312.78;;;16.38;47.30
21182;BME280;10749;46.296;7.524;2022-10-31T04:49:07;95311.78;;;16.39;47.41
21182;BME280;10749;46.296;7.524;2022-10-31T04:51:32;95311.13;;;16.30;47.44
21182;BME280;10749;46.296;7.524;2022-10-31T04:53:57;95305.38;;;16.27;47.33
21182;BME280;10749;46.296;7.524;2022-10-31T04:56:22;95309.06;;;16.26;47.35
21182;BME280;10749;46.296;7.524;2022-10-31T04:58:48;95304.56;;;16.26;47.22
21182;BME280;10749;46.296;7.524;2022-10-31T05:01:13;95304.56;;;16.26;47.54
21182;BME280;10749;46.296;7.524;2022-10-31T05:03:38;95303.31;;;16.22;47.50
21182;BME280;10749;46.296;7.524;2022-10-31T05:06:05;95314.59;;;16.17;47.53
21182;BME280;10749;46.296;7.524;2022-10-31T05:08:31;95309.47;;;16.16;47.32
21182;BME280;10749;46.296;7.524;2022-10-31T05:10:59;95313.78;;;16.10;47.39
21182;BME280;10749;46.296;7.524;2022-10-31T05:13:25;95304.53;;;16.13;47.25
21182;BME280;10749;46.296;7.524;2022-10-31T05:15:50;95311.34;;;16.22;47.56
21182;BME280;10749;46.296;7.524;2022-10-31T05:18:16;95307.41;;;16.18;47.36
21182;BME280;10749;46.296;7.524;2022-10-31T05:20:41;95314.41;;;16.19;47.65
21182;BME280;10749;46.296;7.524;2022-10-31T05:23:06;95308.66;;;16.22;47.53
21182;BME280;10749;46.296;7.524;2022-10-31T05:25:32;95309.06;;;16.19;47.29
21182;BME280;10749;46.296;7.524;2022-10-31T05:27:57;95303.31;;;16.22;47.46
21182;BME280;10749;46.296;7.524;2022-10-31T05:30:28;95303.31;;;16.29;47.55
21182;BME280;10749;46.296;7.524;2022-10-31T05:32:54;95300.88;;;16.34;47.22
21182;BME280;10749;46.296;7.524;2022-10-31T05:35:28;95300.03;;;16.33;47.05
21182;BME280;10749;46.296;7.524;2022-10-31T05:37:54;95298.81;;;16.29;47.37
21182;BME280;10749;46.296;7.524;2022-10-31T05:40:20;95300.88;;;16.27;47.34
21182;BME280;10749;46.296;7.524;2022-10-31T05:42:46;95300.44;;;16.24;47.32
21182;BME280;10749;46.296;7.524;2022-10-31T05:45:16;95301.66;;;16.21;47.44
21182;BME280;10749;46.296;7.524;2022-10-31T05:47:42;95297.53;;;16.12;47.55
21182;BME280;10749;46.296;7.524;2022-10-31T05:50:09;95304.94;;;16.10;47.15
21182;BME280;10749;46.296;7.524;2022-10-31T05:52:35;95293.03;;;16.12;47.11
21182;BME280;10749;46.296;7.524;2022-10-31T05:55:00;95286.84;;;16.12;47.07
21182;BME280;10749;46.296;7.524;2022-10-31T05:57:26;95280.53;;;16.26;47.08
21182;BME280;10749;46.296;7.524;2022-10-31T05:59:51;95279.69;;;16.32;46.81
21182;BME280;10749;46.296;7.524;2022-10-31T06:02:19;95283.19;;;16.26;46.63
21182;BME280;10749;46.296;7.524;2022-10-31T06:04:44;95286.47;;;16.22;47.01
21182;BME280;10749;46.296;7.524;2022-10-31T06:07:09;95292.19;;;16.12;47.05
21182;BME280;10749;46.296;7.524;2022-10-31T06:09:35;95290.91;;;15.88;46.77
21182;BME280;10749;46.296;7.524;2022-10-31T06:12:00;95286.81;;;15.86;46.54
21182;BME280;10749;46.296;7.524;2022-10-31T06:14:25;95292.34;;;15.91;47.02
21182;BME280;10749;46.296;7.524;2022-10-31T06:16:50;95291.78;;;16.02;46.72
21182;BME280;10749;46.296;7.524;2022-10-31T06:19:16;95292.56;;;15.96;47.04
21182;BME280;10749;46.296;7.524;2022-10-31T06:21:41;95291.78;;;16.02;46.64
21182;BME280;10749;46.296;7.524;2022-10-31T06:24:06;95282.97;;;16.14;46.85
21182;BME280;10749;46.296;7.524;2022-10-31T06:26:32;95286.66;;;16.20;46.55
21182;BME280;10749;46.296;7.524;2022-10-31T06:28:57;95298.41;;;16.19;46.69
21182;BME280;10749;46.296;7.524;2022-10-31T06:31:22;95294.69;;;16.13;46.60
21182;BME280;10749;46.296;7.524;2022-10-31T06:33:48;95295.09;;;16.17;46.47
21182;BME280;10749;46.296;7.524;2022-10-31T06:36:13;95290.13;;;16.07;46.66
21182;BME280;10749;46.296;7.524;2022-10-31T06:38:38;95289.72;;;16.04;46.39
21182;BME280;10749;46.296;7.524;2022-10-31T06:41:05;95291.78;;;16.08;46.77
21182;BME280;10749;46.296;7.524;2022-10-31T06:43:31;95294.25;;;16.16;46.45
21182;BME280;10749;46.296;7.524;2022-10-31T06:45:56;95285.22;;;16.24;46.60
21182;BME280;10749;46.296;7.524;2022-10-31T06:48:22;95286.06;;;16.25;46.50
21182;BME280;10749;46.296;7.524;2022-10-31T06:50:47;95290.19;;;16.27;46.46
21182;BME280;10749;46.296;7.524;2022-10-31T06:53:13;95296.75;;;16.31;46.67
21182;BME280;10749;46.296;7.524;2022-10-31T06:55:39;95305.59;;;16.38;46.66
21182;BME280;10749;46.296;7.524;2022-10-31T06:58:05;95303.16;;;16.43;46.63
21182;BME280;10749;46.296;7.524;2022-10-31T07:00:31;95304.75;;;16.44;46.65
21182;BME280;10749;46.296;7.524;2022-10-31T07:05:23;95300.47;;;16.30;46.79
21182;BME280;10749;46.296;7.524;2022-10-31T07:08:10;95306.63;;;16.37;46.78
21182;BME280;10749;46.296;7.524;2022-10-31T07:10:38;95313.41;;;16.33;46.78
21182;BME280;10749;46.296;7.524;2022-10-31T07:13:05;95314.44;;;16.39;46.59
21182;BME280;10749;46.296;7.524;2022-10-31T07:15:35;95314.44;;;16.45;46.61
21182;BME280;10749;46.296;7.524;2022-10-31T07:18:03;95310.31;;;16.49;46.49
21182;BME280;10749;46.296;7.524;2022-10-31T07:20:29;95313.66;;;16.58;46.42
21182;BME280;10749;46.296;7.524;2022-10-31T07:22:55;95321.47;;;16.73;46.61
21182;BME280;10749;46.296;7.524;2022-10-31T07:25:21;95323.09;;;16.74;46.48
21182;BME280;10749;46.296;7.524;2022-10-31T07:27:46;95326.81;;;16.59;46.47
21182;BME280;10749;46.296;7.524;2022-10-31T07:30:12;95328.06;;;16.64;46.74
21182;BME280;10749;46.296;7.524;2022-10-31T07:32:42;95331.34;;;16.66;46.63
21182;BME280;10749;46.296;7.524;2022-10-31T07:35:09;95334.22;;;16.64;46.90
21182;BME280;10749;46.296;7.524;2022-10-31T07:37:34;95337.53;;;16.73;46.72
21182;BME280;10749;46.296;7.524;2022-10-31T07:40:00;95338.75;;;16.77;46.90
21182;BME280;10749;46.296;7.524;2022-10-31T07:42:25;95349.84;;;16.87;46.56
21182;BME280;10749;46.296;7.524;2022-10-31T07:44:51;95349.03;;;16.93;46.93
21182;BME280;10749;46.296;7.524;2022-10-31T07:47:16;95357.44;;;17.03;46.71
21182;BME280;10749;46.296;7.524;2022-10-31T07:49:41;95354.38;;;16.80;46.77
21182;BME280;10749;46.296;7.524;2022-10-31T07:52:06;95343.06;;;16.78;46.98
21182;BME280;10749;46.296;7.524;2022-10-31T07:54:32;95352.72;;;16.92;46.78
21182;BME280;10749;46.296;7.524;2022-10-31T07:56:57;95362.19;;;17.01;46.69
21182;BME280;10749;46.296;7.524;2022-10-31T07:59:22;95358.66;;;17.07;47.04
21182;BME280;10749;46.296;7.524;2022-10-31T08:01:48;95351.25;;;17.16;46.67
21182;BME280;10749;46.296;7.524;2022-10-31T08:04:13;95350.03;;;17.18;46.72
21182;BME280;10749;46.296;7.524;2022-10-31T08:06:38;95351.06;;;17.30;46.83
21182;BME280;10749;46.296;7.524;2022-10-31T08:09:03;95354.72;;;17.36;46.96
21182;BME280;10749;46.296;7.524;2022-10-31T08:11:29;95341.59;;;16.95;46.95
21182;BME280;10749;46.296;7.524;2022-10-31T08:13:54;95344.91;;;16.90;47.22
21182;BME280;10749;46.296;7.524;2022-10-31T08:16:19;95350.66;;;16.94;47.30
21182;BME280;10749;46.296;7.524;2022-10-31T08:18:45;95342.84;;;16.99;47.37
21182;BME280;10749;46.296;7.524;2022-10-31T08:21:10;95351.69;;;17.06;47.39
21182;BME280;10749;46.296;7.524;2022-10-31T08:23:35;95342.41;;;17.15;47.33
21182;BME280;10749;46.296;7.524;2022-10-31T08:26:00;95346.94;;;17.08;47.98
21182;BME280;10749;46.296;7.524;2022-10-31T08:28:26;95331.53;;;17.10;47.68
21182;BME280;10749;46.296;7.524;2022-10-31T08:30:51;95330.88;;;17.28;47.71
21182;BME280;10749;46.296;7.524;2022-10-31T08:33:17;95319.50;;;17.45;47.46
21182;BME280;10749;46.296;7.524;2022-10-31T08:35:43;95328.97;;;17.61;47.42
21182;BME280;10749;46.296;7.524;2022-10-31T08:38:10;95316.75;;;17.78;47.30
21182;BME280;10749;46.296;7.524;2022-10-31T08:40:36;95327.91;;;17.69;47.19
21182;BME280;10749;46.296;7.524;2022-10-31T08:43:04;95324.19;;;17.70;47.33
21182;BME280;10749;46.296;7.524;2022-10-31T08:45:31;95320.09;;;17.54;47.01
21182;BME280;10749;46.296;7.524;2022-10-31T08:48:01;95308.63;;;17.40;47.27
21182;BME280;10749;46.296;7.524;2022-10-31T08:50:28;95306.53;;;17.56;47.02
21182;BME280;10749;46.296;7.524;2022-10-31T08:52:59;95308.75;;;17.72;47.17
21182;BME280;10749;46.296;7.524;2022-10-31T08:55:25;95307.66;;;17.86;46.88
21182;BME280;10749;46.296;7.524;2022-10-31T08:57:55;95302.66;;;17.96;46.86
21182;BME280;10749;46.296;7.524;2022-10-31T09:00:20;95304.22;;;18.10;46.63
21182;BME280;10749;46.296;7.524;2022-10-31T09:02:46;95295.66;;;17.95;46.40
21182;BME280;10749;46.296;7.524;2022-10-31T09:05:11;95291.47;;;18.06;46.83
21182;BME280;10749;46.296;7.524;2022-10-31T09:07:36;95289.81;;;18.11;46.80
21182;BME280;10749;46.296;7.524;2022-10-31T09:10:01;95286.03;;;18.25;46.53
21182;BME280;10749;46.296;7.524;2022-10-31T09:12:27;95278.81;;;18.26;46.71
21182;BME280;10749;46.296;7.524;2022-10-31T09:14:52;95280.78;;;18.37;46.50
21182;BME280;10749;46.296;7.524;2022-10-31T09:17:17;95283.00;;;18.47;46.22
21182;BME280;10749;46.296;7.524;2022-10-31T09:19:43;95279.63;;;18.51;46.38
21182;BME280;10749;46.296;7.524;2022-10-31T09:22:08;95280.47;;;18.52;46.32
21182;BME280;10749;46.296;7.524;2022-10-31T09:24:33;95282.75;;;18.55;46.26
21182;BME280;10749;46.296;7.524;2022-10-31T09:26:58;95285.38;;;18.61;46.02
21182;BME280;10749;46.296;7.524;2022-10-31T09:29:24;95275.47;;;18.62;46.22
21182;BME280;10749;46.296;7.524;2022-10-31T09:31:49;95262.16;;;18.73;46.07
21182;BME280;10749;46.296;7.524;2022-10-31T09:34:14;95271.97;;;18.86;46.42
21182;BME280;10749;46.296;7.524;2022-10-31T09:36:40;95275.09;;;19.01;46.30
21182;BME280;10749;46.296;7.524;2022-10-31T09:39:05;95275.88;;;19.08;46.31
21182;BME280;10749;46.296;7.524;2022-10-31T09:52:13;95269.19;;;19.72;46.53
21182;BME280;10749;46.296;7.524;2022-10-31T09:54:46;95266.72;;;19.89;46.02
21182;BME280;10749;46.296;7.524;2022-10-31T09:57:14;95267.78;;;19.88;45.89
21182;BME280;10749;46.296;7.524;2022-10-31T09:59:42;95263.09;;;19.83;45.69
21182;BME280;10749;46.296;7.524;2022-10-31T10:02:23;95260.91;;;19.92;45.82
21182;BME280;10749;46.296;7.524;2022-10-31T10:05:10;95265.31;;;20.16;46.13
21182;BME280;10749;46.296;7.524;2022-10-31T10:08:03;95272.38;;;20.28;45.55
21182;BME280;10749;46.296;7.524;2022-10-31T10:11:13;95265.53;;;20.44;45.87
21182;BME280;10749;46.296;7.524;2022-10-31T10:22:12;95256.25;;;20.93;45.68
21182;BME280;10749;46.296;7.524;2022-10-31T10:24:59;95258.72;;;20.95;45.45
21182;BME280;10749;46.296;7.524;2022-10-31T10:30:13;95262.72;;;21.15;45.02
21182;BME280;10749;46.296;7.524;2022-10-31T10:32:51;95270.66;;;21.34;44.90
21182;BME280;10749;46.296;7.524;2022-10-31T10:35:34;95259.94;;;21.62;45.22
21182;BME280;10749;46.296;7.524;2022-10-31T10:41:17;95267.63;;;22.22;44.88
21182;BME280;10749;46.296;7.524;2022-10-31T10:43:42;95269.97;;;22.46;44.72
21182;BME280;10749;46.296;7.524;2022-10-31T10:51:38;95258.31;;;23.08;44.02
21182;BME280;10749;46.296;7.524;2022-10-31T10:59:16;95244.31;;;23.66;43.90
21182;BME280;10749;46.296;7.524;2022-10-31T11:01:43;95236.44;;;23.86;44.13
21182;BME280;10749;46.296;7.524;2022-10-31T11:04:31;95233.66;;;24.03;44.00
21182;BME280;10749;46.296;7.524;2022-10-31T11:07:01;95235.91;;;24.06;43.83
21182;BME280;10749;46.296;7.524;2022-10-31T11:09:27;95224.69;;;24.19;43.64
21182;BME280;10749;46.296;7.524;2022-10-31T11:11:53;95226.13;;;24.26;43.58
21182;BME280;10749;46.296;7.524;2022-10-31T11:14:19;95217.84;;;24.38;43.44
21182;BME280;10749;46.296;7.524;2022-10-31T11:16:48;95211.69;;;24.43;43.16
21182;BME280;10749;46.296;7.524;2022-10-31T11:19:22;95200.69;;;24.54;43.24
21182;BME280;10749;46.296;7.524;2022-10-31T11:21:48;95196.97;;;24.65;42.85
21182;BME280;10749;46.296;7.524;2022-10-31T11:24:17;95209.25;;;24.78;42.53
21182;BME280;10749;46.296;7.524;2022-10-31T11:26:44;95202.09;;;24.89;42.76
21182;BME280;10749;46.296;7.524;2022-10-31T11:29:30;95195.97;;;25.08;42.67
21182;BME280;10749;46.296;7.524;2022-10-31T11:31:56;95189.78;;;25.13;42.15
21182;BME280;10749;46.296;7.524;2022-10-31T11:34:42;95187.06;;;25.13;42.04
21182;BME280;10749;46.296;7.524;2022-10-31T11:39:41;95176.41;;;25.48;41.86
21182;BME280;10749;46.296;7.524;2022-10-31T11:42:07;95162.63;;;25.50;41.62
21182;BME280;10749;46.296;7.524;2022-10-31T11:44:33;95161.06;;;25.64;41.68
21182;BME280;10749;46.296;7.524;2022-10-31T11:47:03;95159.72;;;25.66;41.35
21182;BME280;10749;46.296;7.524;2022-10-31T11:49:35;95155.34;;;25.60;41.42
21182;BME280;10749;46.296;7.524;2022-10-31T11:52:07;95140.50;;;25.78;41.47
21182;BME280;10749;46.296;7.524;2022-10-31T11:54:47;95139.19;;;25.91;41.34
21182;BME280;10749;46.296;7.524;2022-10-31T11:57:31;95134.31;;;25.98;41.21
21182;BME280;10749;46.296;7.524;2022-10-31T11:59:59;95124.00;;;25.90;40.30
21182;BME280;10749;46.296;7.524;2022-10-31T12:02:25;95116.97;;;25.94;40.15
21182;BME280;10749;46.296;7.524;2022-10-31T12:04:58;95109.91;;;25.93;40.33
21182;BME280;10749;46.296;7.524;2022-10-31T12:07:26;95106.09;;;25.89;39.86
21182;BME280;10749;46.296;7.524;2022-10-31T12:09:51;95097.97;;;25.89;39.67
21182;BME280;10749;46.296;7.524;2022-10-31T12:31:23;95060.59;;;26.36;38.53
21182;BME280;10749;46.296;7.524;2022-10-31T12:33:55;95062.19;;;26.42;38.82
21182;BME280;10749;46.296;7.524;2022-10-31T12:36:42;95064.34;;;26.66;39.35
21182;BME280;10749;46.296;7.524;2022-10-31T12:44:59;95048.31;;;26.79;38.11
21182;BME280;10749;46.296;7.524;2022-10-31T12:50:26;95036.13;;;26.67;38.48
21182;BME280;10749;46.296;7.524;2022-10-31T12:58:14;95024.72;;;26.75;37.63
21182;BME280;10749;46.296;7.524;2022-10-31T13:00:45;95022.50;;;26.77;37.37
21182;BME280;10749;46.296;7.524;2022-10-31T13:03:21;95020.34;;;26.79;37.34
21182;BME280;10749;46.296;7.524;2022-10-31T13:05:54;95004.03;;;26.89;37.10
21182;BME280;10749;46.296;7.524;2022-10-31T13:11:27;94989.78;;;27.22;37.16
21182;BME280;10749;46.296;7.524;2022-10-31T13:14:33;94983.69;;;27.40;37.08
21182;BME280;10749;46.296;7.524;2022-10-31T13:17:01;94982.56;;;27.46;36.84
21182;BME280;10749;46.296;7.524;2022-10-31T13:19:43;94983.13;;;27.53;36.94
21182;BME280;10749;46.296;7.524;2022-10-31T13:22:17;94986.34;;;27.56;36.36
21182;BME280;10749;46.296;7.524;2022-10-31T13:24:55;94978.16;;;27.61;36.32
21182;BME280;10749;46.296;7.524;2022-10-31T13:27:26;94977.69;;;27.87;35.51
21182;BME280;10749;46.296;7.524;2022-10-31T13:32:36;94964.28;;;28.54;35.49
21182;BME280;10749;46.296;7.524;2022-10-31T13:35:05;94956.34;;;28.86;35.00
21182;BME280;10749;46.296;7.524;2022-10-31T13:37:47;94955.53;;;28.85;34.27
21182;BME280;10749;46.296;7.524;2022-10-31T13:40:32;94954.22;;;28.54;34.36
21182;BME280;10749;46.296;7.524;2022-10-31T13:43:06;94950.53;;;28.16;34.16
21182;BME280;10749;46.296;7.524;2022-10-31T13:45:51;94932.78;;;27.90;34.23
21182;BME280;10749;46.296;7.524;2022-10-31T13:50:43;94931.63;;;27.96;34.14
21182;BME280;10749;46.296;7.524;2022-10-31T13:53:21;94917.84;;;27.87;33.97
21182;BME280;10749;46.296;7.524;2022-10-31T13:55:49;94923.44;;;28.01;34.18
21182;BME280;10749;46.296;7.524;2022-10-31T13:58:55;94916.00;;;27.83;33.75
21182;BME280;10749;46.296;7.524;2022-10-31T14:01:22;94904.97;;;27.69;33.45
21182;BME280;10749;46.296;7.524;2022-10-31T14:03:57;94904.09;;;27.35;33.42
21182;BME280;10749;46.296;7.524;2022-10-31T14:06:38;94899.25;;;26.83;32.97
21182;BME280;10749;46.296;7.524;2022-10-31T14:09:06;94894.50;;;26.44;32.93
21182;BME280;10749;46.296;7.524;2022-10-31T14:11:45;94889.44;;;26.07;33.21
21182;BME280;10749;46.296;7.524;2022-10-31T14:14:12;94893.53;;;25.85;32.63
21182;BME280;10749;46.296;7.524;2022-10-31T14:16:39;94887.31;;;25.64;33.09
21182;BME280;10749;46.296;7.524;2022-10-31T14:19:14;94901.66;;;25.44;33.17
21182;BME280;10749;46.296;7.524;2022-10-31T14:21:43;94890.28;;;25.27;33.44
21182;BME280;10749;46.296;7.524;2022-10-31T14:24:31;94889.16;;;25.08;33.47
21182;BME280;10749;46.296;7.524;2022-10-31T14:27:31;94893.50;;;25.04;33.75
21182;BME280;10749;46.296;7.524;2022-10-31T14:29:50;94879.38;;;24.87;33.57
21182;BME280;10749;46.296;7.524;2022-10-31T14:34:53;94876.59;;;24.66;33.58
21182;BME280;10749;46.296;7.524;2022-10-31T14:51:22;94894.97;;;24.07;33.84
21182;BME280;10749;46.296;7.524;2022-10-31T14:53:54;94886.31;;;24.05;33.30
21182;BME280;10749;46.296;7.524;2022-10-31T14:56:24;94887.75;;;24.18;33.68
21182;BME280;10749;46.296;7.524;2022-10-31T14:58:53;94885.06;;;24.23;33.71
21182;BME280;10749;46.296;7.524;2022-10-31T15:01:30;94891.56;;;24.27;33.37
21182;BME280;10749;46.296;7.524;2022-10-31T15:04:04;94893.78;;;24.30;33.48
21182;BME280;10749;46.296;7.524;2022-10-31T15:06:39;94901.06;;;24.29;33.29
21182;BME280;10749;46.296;7.524;2022-10-31T15:09:05;94907.00;;;24.26;33.20
21182;BME280;10749;46.296;7.524;2022-10-31T15:11:36;94904.28;;;24.21;33.68
21182;BME280;10749;46.296;7.524;2022-10-31T15:14:25;94908.25;;;24.14;33.34
21182;BME280;10749;46.296;7.524;2022-10-31T15:16:51;94917.41;;;24.08;33.58